createdAt,value
2018-09-13T00:00:03.063Z,16.4444444444
2018-09-13T00:00:15.536Z,16.3888888889
2018-09-13T00:00:28.087Z,16.3888888889
2018-09-13T00:00:40.514Z,16.3888888889
2018-09-13T00:00:52.945Z,16.3888888889
2018-09-13T00:01:05.363Z,16.3888888889
2018-09-13T00:01:17.780Z,16.3888888889
2018-09-13T00:01:30.176Z,16.3888888889
2018-09-13T00:01:42.581Z,16.3888888889
2018-09-13T00:01:55.025Z,16.3888888889
2018-09-13T00:02:07.486Z,16.3888888889
2018-09-13T00:02:19.905Z,16.3888888889
2018-09-13T00:02:32.307Z,16.3888888889
2018-09-13T00:02:44.747Z,16.3888888889
2018-09-13T00:02:57.156Z,16.3888888889
2018-09-13T00:03:09.547Z,16.3888888889
2018-09-13T00:03:22.246Z,16.3888888889
2018-09-13T00:03:34.675Z,16.3888888889
2018-09-13T00:03:47.074Z,16.3888888889
2018-09-13T00:03:59.484Z,16.3888888889
2018-09-13T00:04:11.893Z,16.3888888889
2018-09-13T00:04:24.309Z,16.3888888889
2018-09-13T00:04:36.703Z,16.3888888889
2018-09-13T00:04:49.174Z,16.3888888889
2018-09-13T00:05:01.577Z,16.3888888889
2018-09-13T00:05:13.998Z,16.3888888889
2018-09-13T00:05:26.390Z,16.3888888889
2018-09-13T00:05:38.863Z,16.3888888889
2018-09-13T00:05:51.614Z,16.3888888889
2018-09-13T00:06:04.718Z,16.3888888889
2018-09-13T00:06:17.142Z,16.3888888889
2018-09-13T00:06:29.582Z,16.3333333333
2018-09-13T00:06:42.011Z,16.3888888889
2018-09-13T00:06:54.431Z,16.3888888889
2018-09-13T00:07:06.860Z,16.3888888889
2018-09-13T00:07:19.272Z,16.3333333333
2018-09-13T00:07:31.715Z,16.3888888889
2018-09-13T00:07:44.433Z,16.3333333333
2018-09-13T00:07:56.856Z,16.3888888889
2018-09-13T00:08:09.264Z,16.3333333333
2018-09-13T00:08:21.712Z,16.3333333333
2018-09-13T00:08:34.107Z,16.3333333333
2018-09-13T00:08:46.545Z,16.3888888889
2018-09-13T00:08:58.951Z,16.3333333333
2018-09-13T00:09:11.351Z,16.3888888889
2018-09-13T00:09:23.835Z,16.3333333333
2018-09-13T00:09:36.298Z,16.3333333333
2018-09-13T00:09:49.093Z,16.3333333333
2018-09-13T00:10:01.538Z,16.3333333333
2018-09-13T00:10:13.946Z,16.3333333333
2018-09-13T00:10:26.458Z,16.3333333333
2018-09-13T00:10:38.905Z,16.3333333333
2018-09-13T00:10:51.310Z,16.3333333333
2018-09-13T00:11:03.724Z,16.3333333333
2018-09-13T00:11:16.172Z,16.3333333333
2018-09-13T00:11:28.845Z,16.3333333333
2018-09-13T00:11:41.392Z,16.3333333333
2018-09-13T00:11:53.820Z,16.3333333333
2018-09-13T00:12:06.229Z,16.3333333333
2018-09-13T00:12:18.751Z,16.3333333333
2018-09-13T00:12:31.168Z,16.3333333333
2018-09-13T00:12:43.709Z,16.3333333333
2018-09-13T00:12:56.107Z,16.2777777778
2018-09-13T00:13:08.523Z,16.3333333333
2018-09-13T00:13:20.954Z,16.2777777778
2018-09-13T00:13:33.355Z,16.3333333333
2018-09-13T00:13:45.768Z,16.2777777778
2018-09-13T00:13:58.170Z,16.2777777778
2018-09-13T00:14:10.682Z,16.2777777778
2018-09-13T00:14:23.098Z,16.2777777778
2018-09-13T00:14:35.506Z,16.2777777778
2018-09-13T00:14:48.322Z,16.2777777778
2018-09-13T00:15:00.783Z,16.2777777778
2018-09-13T00:15:13.171Z,16.2777777778
2018-09-13T00:15:25.702Z,16.2777777778
2018-09-13T00:15:38.111Z,16.2777777778
2018-09-13T00:15:50.525Z,16.2222222222
2018-09-13T00:16:02.936Z,16.2777777778
2018-09-13T00:16:15.335Z,16.2222222222
2018-09-13T00:16:27.737Z,16.2222222222
2018-09-13T00:16:40.136Z,16.2222222222
2018-09-13T00:16:52.556Z,16.2777777778
2018-09-13T00:17:04.969Z,16.2222222222
2018-09-13T00:17:17.390Z,16.2222222222
2018-09-13T00:17:29.786Z,16.2222222222
2018-09-13T00:17:42.201Z,16.2222222222
2018-09-13T00:17:54.618Z,16.2222222222
2018-09-13T00:18:07.009Z,16.2222222222
2018-09-13T00:18:19.427Z,16.2222222222
2018-09-13T00:18:31.884Z,16.2222222222
2018-09-13T00:18:44.291Z,16.2222222222
2018-09-13T00:18:56.729Z,16.2222222222
2018-09-13T00:19:09.145Z,16.2222222222
2018-09-13T00:19:21.557Z,16.1666666667
2018-09-13T00:19:33.961Z,16.2222222222
2018-09-13T00:19:46.359Z,16.2222222222
2018-09-13T00:19:58.809Z,16.2222222222
2018-09-13T00:20:11.273Z,16.1666666667
2018-09-13T00:20:23.694Z,16.2222222222
2018-09-13T00:20:36.138Z,16.1666666667
2018-09-13T00:20:48.580Z,16.1666666667
2018-09-13T00:21:01.302Z,16.1666666667
2018-09-13T00:21:13.717Z,16.1666666667
2018-09-13T00:21:26.120Z,16.1666666667
2018-09-13T00:21:38.532Z,16.1666666667
2018-09-13T00:21:50.978Z,16.1666666667
2018-09-13T00:22:03.391Z,16.1666666667
2018-09-13T00:22:15.798Z,16.1666666667
2018-09-13T00:22:28.203Z,16.1666666667
2018-09-13T00:22:40.595Z,16.1666666667
2018-09-13T00:22:52.990Z,16.1666666667
2018-09-13T00:23:05.400Z,16.1666666667
2018-09-13T00:23:17.932Z,16.1666666667
2018-09-13T00:23:30.351Z,16.1666666667
2018-09-13T00:23:42.762Z,16.1666666667
2018-09-13T00:23:55.195Z,16.1666666667
2018-09-13T00:24:07.906Z,16.1666666667
2018-09-13T00:24:20.326Z,16.1666666667
2018-09-13T00:24:32.745Z,16.1666666667
2018-09-13T00:24:45.172Z,16.1666666667
2018-09-13T00:24:57.591Z,16.1666666667
2018-09-13T00:25:10.014Z,16.1666666667
2018-09-13T00:25:22.423Z,16.1666666667
2018-09-13T00:25:34.838Z,16.1666666667
2018-09-13T00:25:47.251Z,16.1666666667
2018-09-13T00:25:59.669Z,16.1666666667
2018-09-13T00:26:12.305Z,16.1666666667
2018-09-13T00:26:24.712Z,16.1666666667
2018-09-13T00:26:37.110Z,16.1666666667
2018-09-13T00:26:49.530Z,16.1666666667
2018-09-13T00:27:01.950Z,16.1111111111
2018-09-13T00:27:14.339Z,16.1666666667
2018-09-13T00:27:26.733Z,16.1666666667
2018-09-13T00:27:39.175Z,16.1666666667
2018-09-13T00:27:51.575Z,16.1111111111
2018-09-13T00:28:03.970Z,16.1666666667
2018-09-13T00:28:16.594Z,16.1111111111
2018-09-13T00:28:29.025Z,16.1111111111
2018-09-13T00:28:41.441Z,16.1111111111
2018-09-13T00:28:53.840Z,16.1111111111
2018-09-13T00:29:06.242Z,16.1111111111
2018-09-13T00:29:18.644Z,16.1111111111
2018-09-13T00:29:31.055Z,16.1111111111
2018-09-13T00:29:43.464Z,16.1111111111
2018-09-13T00:29:55.873Z,16.0555555556
2018-09-13T00:30:08.283Z,16.1111111111
2018-09-13T00:30:20.694Z,16.1111111111
2018-09-13T00:30:33.109Z,16.1111111111
2018-09-13T00:30:45.569Z,16.1111111111
2018-09-13T00:30:57.975Z,16.1111111111
2018-09-13T00:31:10.825Z,16.1111111111
2018-09-13T00:31:23.236Z,16.1111111111
2018-09-13T00:31:35.670Z,16.1111111111
2018-09-13T00:31:48.071Z,16.1111111111
2018-09-13T00:32:00.479Z,16.1111111111
2018-09-13T00:32:13.015Z,16.1111111111
2018-09-13T00:32:25.423Z,16.1111111111
2018-09-13T00:32:37.816Z,16.1111111111
2018-09-13T00:32:50.220Z,16.1111111111
2018-09-13T00:33:02.656Z,16.1111111111
2018-09-13T00:33:15.067Z,16.1111111111
2018-09-13T00:33:27.478Z,16.1111111111
2018-09-13T00:33:39.981Z,16.1111111111
2018-09-13T00:33:52.394Z,16.1111111111
2018-09-13T00:34:04.797Z,16.1111111111
2018-09-13T00:34:17.178Z,16.1111111111
2018-09-13T00:34:29.591Z,16.1111111111
2018-09-13T00:34:41.996Z,16.1111111111
2018-09-13T00:34:54.418Z,16.1111111111
2018-09-13T00:35:06.825Z,16.1111111111
2018-09-13T00:35:19.242Z,16.1111111111
2018-09-13T00:35:31.621Z,16.1111111111
2018-09-13T00:35:44.025Z,16.0555555556
2018-09-13T00:35:56.454Z,16.1111111111
2018-09-13T00:36:08.845Z,16.1111111111
2018-09-13T00:36:21.297Z,16.1111111111
2018-09-13T00:36:33.788Z,16.1111111111
2018-09-13T00:36:46.243Z,16.1111111111
2018-09-13T00:36:58.634Z,16.1111111111
2018-09-13T00:37:11.047Z,16.1111111111
2018-09-13T00:37:23.433Z,16.1111111111
2018-09-13T00:37:35.890Z,16.1111111111
2018-09-13T00:37:48.288Z,16.1111111111
2018-09-13T00:38:00.748Z,16.1111111111
2018-09-13T00:38:13.159Z,16.1111111111
2018-09-13T00:38:25.633Z,16.1111111111
2018-09-13T00:38:38.112Z,16.0555555556
2018-09-13T00:38:50.508Z,16.1111111111
2018-09-13T00:39:02.904Z,16.0555555556
2018-09-13T00:39:15.305Z,16.1111111111
2018-09-13T00:39:27.718Z,16.0555555556
2018-09-13T00:39:40.162Z,16.0555555556
2018-09-13T00:39:52.588Z,16.0555555556
2018-09-13T00:40:04.982Z,16.0555555556
2018-09-13T00:40:17.476Z,16.0555555556
2018-09-13T00:40:29.906Z,16
2018-09-13T00:40:42.422Z,16.0555555556
2018-09-13T00:40:54.823Z,16.0555555556
2018-09-13T00:41:07.211Z,16.0555555556
2018-09-13T00:41:19.613Z,16.0555555556
2018-09-13T00:41:32.000Z,16.0555555556
2018-09-13T00:41:44.398Z,16.0555555556
2018-09-13T00:41:56.801Z,16.0555555556
2018-09-13T00:42:09.197Z,16.0555555556
2018-09-13T00:42:21.606Z,16
2018-09-13T00:42:34.013Z,16.0555555556
2018-09-13T00:42:46.424Z,16.0555555556
2018-09-13T00:42:58.829Z,16.0555555556
2018-09-13T00:43:11.224Z,16.0555555556
2018-09-13T00:43:23.619Z,16
2018-09-13T00:43:36.036Z,16
2018-09-13T00:43:48.437Z,16.0555555556
2018-09-13T00:44:00.836Z,16
2018-09-13T00:44:13.229Z,16.0555555556
2018-09-13T00:44:25.637Z,16.0555555556
2018-09-13T00:44:38.053Z,16
2018-09-13T00:44:50.449Z,16
2018-09-13T00:45:02.866Z,16
2018-09-13T00:45:15.307Z,16
2018-09-13T00:45:27.710Z,16.0555555556
2018-09-13T00:45:40.105Z,16
2018-09-13T00:45:52.486Z,16
2018-09-13T00:46:04.908Z,16
2018-09-13T00:46:17.306Z,16
2018-09-13T00:46:29.710Z,16
2018-09-13T00:46:42.103Z,16
2018-09-13T00:46:54.495Z,16
2018-09-13T00:47:06.902Z,16
2018-09-13T00:47:19.355Z,16
2018-09-13T00:47:31.781Z,16
2018-09-13T00:47:44.196Z,16
2018-09-13T00:47:56.580Z,16
2018-09-13T00:48:09.001Z,16
2018-09-13T00:48:21.391Z,16
2018-09-13T00:48:33.797Z,16
2018-09-13T00:48:46.212Z,16
2018-09-13T00:48:58.819Z,15.9444444444
2018-09-13T00:49:11.233Z,16
2018-09-13T00:49:23.842Z,16
2018-09-13T00:49:36.234Z,16
2018-09-13T00:49:48.622Z,15.9444444444
2018-09-13T00:50:01.024Z,15.9444444444
2018-09-13T00:50:13.443Z,15.9444444444
2018-09-13T00:50:25.833Z,16
2018-09-13T00:50:38.254Z,16
2018-09-13T00:50:50.660Z,15.9444444444
2018-09-13T00:51:03.072Z,15.9444444444
2018-09-13T00:51:15.468Z,15.9444444444
2018-09-13T00:51:27.865Z,15.9444444444
2018-09-13T00:51:40.250Z,15.9444444444
2018-09-13T00:51:52.643Z,15.9444444444
2018-09-13T00:52:05.020Z,15.9444444444
2018-09-13T00:52:17.405Z,15.9444444444
2018-09-13T00:52:29.807Z,15.9444444444
2018-09-13T00:52:42.209Z,15.9444444444
2018-09-13T00:52:54.602Z,15.9444444444
2018-09-13T00:53:07.027Z,15.9444444444
2018-09-13T00:53:19.631Z,15.9444444444
2018-09-13T00:53:32.031Z,15.9444444444
2018-09-13T00:53:44.434Z,15.9444444444
2018-09-13T00:53:56.840Z,15.9444444444
2018-09-13T00:54:09.240Z,15.9444444444
2018-09-13T00:54:21.634Z,15.9444444444
2018-09-13T00:54:34.066Z,15.9444444444
2018-09-13T00:54:46.483Z,15.9444444444
2018-09-13T00:54:58.894Z,15.9444444444
2018-09-13T00:55:11.297Z,15.9444444444
2018-09-13T00:55:23.683Z,15.9444444444
2018-09-13T00:55:36.072Z,15.8888888889
2018-09-13T00:55:48.482Z,15.8888888889
2018-09-13T00:56:00.889Z,15.9444444444
2018-09-13T00:56:13.289Z,15.9444444444
2018-09-13T00:56:25.674Z,15.9444444444
2018-09-13T00:56:38.076Z,15.9444444444
2018-09-13T00:56:50.516Z,15.9444444444
2018-09-13T00:57:03.025Z,15.8888888889
2018-09-13T00:57:15.508Z,15.8888888889
2018-09-13T00:57:27.896Z,15.8888888889
2018-09-13T00:57:40.303Z,15.9444444444
2018-09-13T00:57:52.713Z,15.9444444444
2018-09-13T00:58:05.500Z,15.8888888889
2018-09-13T00:58:17.897Z,15.9444444444
2018-09-13T00:58:30.300Z,15.8888888889
2018-09-13T00:58:43.054Z,15.8888888889
2018-09-13T00:58:55.729Z,15.8888888889
2018-09-13T00:59:09.431Z,15.8888888889
2018-09-13T00:59:21.872Z,15.8888888889
2018-09-13T00:59:34.267Z,15.8888888889
2018-09-13T00:59:46.674Z,15.8888888889
2018-09-13T00:59:59.078Z,15.8888888889
2018-09-13T01:00:11.487Z,15.8888888889
2018-09-13T01:00:24.055Z,15.8888888889
2018-09-13T01:00:36.514Z,15.8888888889
2018-09-13T01:00:48.935Z,15.8888888889
2018-09-13T01:01:01.354Z,15.8888888889
2018-09-13T01:01:13.765Z,15.8888888889
2018-09-13T01:01:26.185Z,15.8888888889
2018-09-13T01:01:38.601Z,15.8888888889
2018-09-13T01:01:51.009Z,15.8888888889
2018-09-13T01:02:03.425Z,15.8888888889
2018-09-13T01:02:15.826Z,15.8888888889
2018-09-13T01:02:28.247Z,15.8333333333
2018-09-13T01:02:40.699Z,15.8333333333
2018-09-13T01:02:53.092Z,15.8888888889
2018-09-13T01:03:05.501Z,15.8333333333
2018-09-13T01:03:18.089Z,15.8888888889
2018-09-13T01:03:30.499Z,15.8333333333
2018-09-13T01:03:42.906Z,15.8333333333
2018-09-13T01:03:55.326Z,15.8333333333
2018-09-13T01:04:07.753Z,15.8888888889
2018-09-13T01:04:20.149Z,15.8333333333
2018-09-13T01:04:32.561Z,15.8333333333
2018-09-13T01:04:45.024Z,15.8888888889
2018-09-13T01:04:57.523Z,15.8333333333
2018-09-13T01:05:09.986Z,15.8333333333
2018-09-13T01:05:22.392Z,15.7777777778
2018-09-13T01:05:34.822Z,15.8333333333
2018-09-13T01:05:47.277Z,15.8333333333
2018-09-13T01:05:59.689Z,15.8333333333
2018-09-13T01:06:12.122Z,15.8333333333
2018-09-13T01:06:24.542Z,15.8333333333
2018-09-13T01:06:37.095Z,15.8333333333
2018-09-13T01:06:49.501Z,15.8333333333
2018-09-13T01:07:01.904Z,15.8333333333
2018-09-13T01:07:14.366Z,15.8333333333
2018-09-13T01:07:26.772Z,15.8333333333
2018-09-13T01:07:39.152Z,15.7777777778
2018-09-13T01:07:51.555Z,15.8333333333
2018-09-13T01:08:03.970Z,15.8333333333
2018-09-13T01:08:16.390Z,15.8333333333
2018-09-13T01:08:28.803Z,15.8333333333
2018-09-13T01:08:41.214Z,15.7777777778
2018-09-13T01:08:53.607Z,15.7777777778
2018-09-13T01:09:06.017Z,15.7777777778
2018-09-13T01:09:18.433Z,15.7777777778
2018-09-13T01:09:30.860Z,15.7777777778
2018-09-13T01:09:43.261Z,15.7777777778
2018-09-13T01:09:55.655Z,15.7777777778
2018-09-13T01:10:08.085Z,15.7777777778
2018-09-13T01:10:20.709Z,15.7777777778
2018-09-13T01:10:33.114Z,15.7777777778
2018-09-13T01:10:45.514Z,15.7777777778
2018-09-13T01:10:57.930Z,15.7777777778
2018-09-13T01:11:10.314Z,15.7777777778
2018-09-13T01:11:23.059Z,15.7777777778
2018-09-13T01:11:35.469Z,15.7777777778
2018-09-13T01:11:48.060Z,15.7777777778
2018-09-13T01:12:00.479Z,15.7777777778
2018-09-13T01:12:13.090Z,15.7777777778
2018-09-13T01:12:25.537Z,15.7777777778
2018-09-13T01:12:37.957Z,15.7777777778
2018-09-13T01:12:50.366Z,15.7222222222
2018-09-13T01:13:02.797Z,15.7777777778
2018-09-13T01:13:15.208Z,15.7777777778
2018-09-13T01:13:27.648Z,15.7222222222
2018-09-13T01:13:40.046Z,15.7777777778
2018-09-13T01:13:52.438Z,15.7222222222
2018-09-13T01:14:04.839Z,15.7222222222
2018-09-13T01:14:17.240Z,15.7222222222
2018-09-13T01:14:29.652Z,15.7777777778
2018-09-13T01:14:42.063Z,15.7777777778
2018-09-13T01:14:54.459Z,15.7777777778
2018-09-13T01:15:06.858Z,15.7222222222
2018-09-13T01:15:19.301Z,15.7222222222
2018-09-13T01:15:31.708Z,15.7222222222
2018-09-13T01:15:44.164Z,15.7222222222
2018-09-13T01:15:56.574Z,15.7222222222
2018-09-13T01:16:08.982Z,15.7222222222
2018-09-13T01:16:21.359Z,15.7222222222
2018-09-13T01:16:33.786Z,15.7777777778
2018-09-13T01:16:46.213Z,15.7222222222
2018-09-13T01:16:58.607Z,15.7222222222
2018-09-13T01:17:11.017Z,15.7222222222
2018-09-13T01:17:23.412Z,15.7222222222
2018-09-13T01:17:35.799Z,15.7222222222
2018-09-13T01:17:48.189Z,15.7222222222
2018-09-13T01:18:00.591Z,15.7222222222
2018-09-13T01:18:13.122Z,15.7222222222
2018-09-13T01:18:25.561Z,15.7222222222
2018-09-13T01:18:37.967Z,15.7222222222
2018-09-13T01:18:50.408Z,15.7222222222
2018-09-13T01:19:02.818Z,15.7222222222
2018-09-13T01:19:15.197Z,15.6666666667
2018-09-13T01:19:27.595Z,15.7222222222
2018-09-13T01:19:40.005Z,15.7222222222
2018-09-13T01:19:52.410Z,15.7222222222
2018-09-13T01:20:04.802Z,15.6666666667
2018-09-13T01:20:17.191Z,15.6666666667
2018-09-13T01:20:29.586Z,15.6666666667
2018-09-13T01:20:41.963Z,15.6666666667
2018-09-13T01:20:54.353Z,15.6666666667
2018-09-13T01:21:06.888Z,15.6666666667
2018-09-13T01:21:19.297Z,15.6666666667
2018-09-13T01:21:31.703Z,15.6666666667
2018-09-13T01:21:44.173Z,15.6111111111
2018-09-13T01:21:56.575Z,15.6666666667
2018-09-13T01:22:08.999Z,15.6666666667
2018-09-13T01:22:21.399Z,15.6666666667
2018-09-13T01:22:34.060Z,15.6111111111
2018-09-13T01:22:46.474Z,15.6666666667
2018-09-13T01:22:58.874Z,15.6666666667
2018-09-13T01:23:11.417Z,15.6111111111
2018-09-13T01:23:23.808Z,15.6111111111
2018-09-13T01:23:36.197Z,15.6666666667
2018-09-13T01:23:48.605Z,15.6111111111
2018-09-13T01:24:01.206Z,15.6111111111
2018-09-13T01:24:13.612Z,15.6666666667
2018-09-13T01:24:26.013Z,15.6666666667
2018-09-13T01:24:38.544Z,15.6111111111
2018-09-13T01:24:50.943Z,15.6111111111
2018-09-13T01:25:03.365Z,15.6111111111
2018-09-13T01:25:15.750Z,15.6111111111
2018-09-13T01:25:28.170Z,15.6111111111
2018-09-13T01:25:40.568Z,15.6111111111
2018-09-13T01:25:52.953Z,15.6111111111
2018-09-13T01:26:05.338Z,15.6111111111
2018-09-13T01:26:17.731Z,15.6111111111
2018-09-13T01:26:30.155Z,15.6111111111
2018-09-13T01:26:42.546Z,15.6111111111
2018-09-13T01:26:55.180Z,15.5555555556
2018-09-13T01:27:07.595Z,15.5555555556
2018-09-13T01:27:20.027Z,15.6111111111
2018-09-13T01:27:32.434Z,15.6111111111
2018-09-13T01:27:44.879Z,15.5555555556
2018-09-13T01:27:57.275Z,15.5555555556
2018-09-13T01:28:09.678Z,15.5555555556
2018-09-13T01:28:22.087Z,15.6111111111
2018-09-13T01:28:34.494Z,15.5555555556
2018-09-13T01:28:46.901Z,15.5555555556
2018-09-13T01:28:59.322Z,15.5555555556
2018-09-13T01:29:11.743Z,15.5555555556
2018-09-13T01:29:24.137Z,15.5555555556
2018-09-13T01:29:36.538Z,15.5555555556
2018-09-13T01:29:48.929Z,15.5555555556
2018-09-13T01:30:01.367Z,15.5555555556
2018-09-13T01:30:13.773Z,15.5555555556
2018-09-13T01:30:26.174Z,15.5555555556
2018-09-13T01:30:38.565Z,15.5555555556
2018-09-13T01:30:51.110Z,15.5555555556
2018-09-13T01:31:03.569Z,15.5555555556
2018-09-13T01:31:15.997Z,15.5555555556
2018-09-13T01:31:28.402Z,15.5555555556
2018-09-13T01:31:40.808Z,15.5555555556
2018-09-13T01:31:53.189Z,15.5555555556
2018-09-13T01:32:05.619Z,15.5555555556
2018-09-13T01:32:18.021Z,15.5555555556
2018-09-13T01:32:30.435Z,15.5555555556
2018-09-13T01:32:42.856Z,15.5555555556
2018-09-13T01:32:55.268Z,15.5555555556
2018-09-13T01:33:07.708Z,15.5555555556
2018-09-13T01:33:20.121Z,15.5555555556
2018-09-13T01:33:32.512Z,15.5555555556
2018-09-13T01:33:45.016Z,15.5555555556
2018-09-13T01:33:57.461Z,15.5555555556
2018-09-13T01:34:09.861Z,15.5555555556
2018-09-13T01:34:22.257Z,15.5555555556
2018-09-13T01:34:34.686Z,15.5555555556
2018-09-13T01:34:47.108Z,15.5555555556
2018-09-13T01:34:59.522Z,15.5555555556
2018-09-13T01:35:11.912Z,15.5555555556
2018-09-13T01:35:24.313Z,15.5555555556
2018-09-13T01:35:36.841Z,15.5555555556
2018-09-13T01:35:49.222Z,15.5555555556
2018-09-13T01:36:01.626Z,15.5555555556
2018-09-13T01:36:14.014Z,15.5555555556
2018-09-13T01:36:26.402Z,15.5555555556
2018-09-13T01:36:38.818Z,15.5555555556
2018-09-13T01:36:51.216Z,15.5
2018-09-13T01:37:03.605Z,15.5555555556
2018-09-13T01:37:16.007Z,15.5555555556
2018-09-13T01:37:28.401Z,15.5555555556
2018-09-13T01:37:40.816Z,15.5555555556
2018-09-13T01:37:53.237Z,15.5555555556
2018-09-13T01:38:05.659Z,15.5555555556
2018-09-13T01:38:18.068Z,15.5555555556
2018-09-13T01:38:30.498Z,15.5555555556
2018-09-13T01:38:42.892Z,15.5555555556
2018-09-13T01:38:55.277Z,15.5555555556
2018-09-13T01:39:07.715Z,15.5
2018-09-13T01:39:20.157Z,15.5
2018-09-13T01:39:32.894Z,15.5555555556
2018-09-13T01:39:45.298Z,15.5555555556
2018-09-13T01:39:57.714Z,15.5
2018-09-13T01:40:10.479Z,15.5
2018-09-13T01:40:22.866Z,15.5
2018-09-13T01:40:35.298Z,15.5555555556
2018-09-13T01:40:47.696Z,15.5
2018-09-13T01:41:00.113Z,15.5
2018-09-13T01:41:12.510Z,15.5
2018-09-13T01:41:24.908Z,15.5
2018-09-13T01:41:37.307Z,15.5
2018-09-13T01:41:49.714Z,15.5
2018-09-13T01:42:02.104Z,15.5
2018-09-13T01:42:14.513Z,15.5
2018-09-13T01:42:26.918Z,15.5
2018-09-13T01:42:39.333Z,15.5
2018-09-13T01:42:51.734Z,15.5
2018-09-13T01:43:04.146Z,15.5
2018-09-13T01:43:16.543Z,15.5
2018-09-13T01:43:28.997Z,15.5
2018-09-13T01:43:41.392Z,15.5
2018-09-13T01:43:53.789Z,15.5
2018-09-13T01:44:06.177Z,15.5
2018-09-13T01:44:18.591Z,15.5
2018-09-13T01:44:31.080Z,15.4444444444
2018-09-13T01:44:43.485Z,15.4444444444
2018-09-13T01:44:55.878Z,15.5
2018-09-13T01:45:08.288Z,15.4444444444
2018-09-13T01:45:20.681Z,15.4444444444
2018-09-13T01:45:33.061Z,15.4444444444
2018-09-13T01:45:45.456Z,15.4444444444
2018-09-13T01:45:57.848Z,15.4444444444
2018-09-13T01:46:10.244Z,15.4444444444
2018-09-13T01:46:22.634Z,15.4444444444
2018-09-13T01:46:35.037Z,15.4444444444
2018-09-13T01:46:47.466Z,15.4444444444
2018-09-13T01:46:59.852Z,15.4444444444
2018-09-13T01:47:12.256Z,15.4444444444
2018-09-13T01:47:24.673Z,15.4444444444
2018-09-13T01:47:37.082Z,15.4444444444
2018-09-13T01:47:49.488Z,15.3888888889
2018-09-13T01:48:01.888Z,15.4444444444
2018-09-13T01:48:14.271Z,15.3888888889
2018-09-13T01:48:26.664Z,15.3888888889
2018-09-13T01:48:39.075Z,15.3888888889
2018-09-13T01:48:51.616Z,15.3888888889
2018-09-13T01:49:04.022Z,15.3888888889
2018-09-13T01:49:16.548Z,15.3888888889
2018-09-13T01:49:28.948Z,15.3888888889
2018-09-13T01:49:41.324Z,15.3888888889
2018-09-13T01:49:53.755Z,15.3888888889
2018-09-13T01:50:06.186Z,15.3888888889
2018-09-13T01:50:18.567Z,15.3333333333
2018-09-13T01:50:31.016Z,15.3888888889
2018-09-13T01:50:43.436Z,15.3888888889
2018-09-13T01:50:55.823Z,15.3333333333
2018-09-13T01:51:08.205Z,15.3333333333
2018-09-13T01:51:20.607Z,15.3888888889
2018-09-13T01:51:32.996Z,15.3888888889
2018-09-13T01:51:45.397Z,15.3888888889
2018-09-13T01:51:57.799Z,15.3333333333
2018-09-13T01:52:10.200Z,15.3333333333
2018-09-13T01:52:22.608Z,15.3333333333
2018-09-13T01:52:35.006Z,15.3333333333
2018-09-13T01:52:47.389Z,15.3333333333
2018-09-13T01:52:59.792Z,15.3333333333
2018-09-13T01:53:12.198Z,15.3333333333
2018-09-13T01:53:24.890Z,15.3333333333
2018-09-13T01:53:37.462Z,15.3333333333
2018-09-13T01:53:49.869Z,15.3333333333
2018-09-13T01:54:02.252Z,15.3333333333
2018-09-13T01:54:14.654Z,15.3333333333
2018-09-13T01:54:27.041Z,15.3333333333
2018-09-13T01:54:39.443Z,15.3333333333
2018-09-13T01:54:51.835Z,15.3333333333
2018-09-13T01:55:04.243Z,15.3333333333
2018-09-13T01:55:16.640Z,15.3333333333
2018-09-13T01:55:29.044Z,15.3333333333
2018-09-13T01:55:41.460Z,15.3333333333
2018-09-13T01:55:53.837Z,15.2777777778
2018-09-13T01:56:06.225Z,15.3333333333
2018-09-13T01:56:18.631Z,15.2777777778
2018-09-13T01:56:31.036Z,15.2777777778
2018-09-13T01:56:43.465Z,15.2777777778
2018-09-13T01:56:55.890Z,15.2777777778
2018-09-13T01:57:08.341Z,15.2777777778
2018-09-13T01:57:20.740Z,15.2777777778
2018-09-13T01:57:33.137Z,15.2777777778
2018-09-13T01:57:45.551Z,15.2777777778
2018-09-13T01:57:57.958Z,15.2777777778
2018-09-13T01:58:10.371Z,15.2777777778
2018-09-13T01:58:22.876Z,15.2777777778
2018-09-13T01:58:35.283Z,15.2777777778
2018-09-13T01:58:47.966Z,15.2777777778
2018-09-13T01:59:00.363Z,15.2777777778
2018-09-13T01:59:12.745Z,15.2777777778
2018-09-13T01:59:25.141Z,15.2777777778
2018-09-13T01:59:37.532Z,15.2777777778
2018-09-13T01:59:49.935Z,15.2777777778
2018-09-13T02:00:02.347Z,15.2777777778
2018-09-13T02:00:14.769Z,15.2777777778
2018-09-13T02:00:27.196Z,15.2777777778
2018-09-13T02:00:39.624Z,15.2777777778
2018-09-13T02:00:52.045Z,15.2777777778
2018-09-13T02:01:04.534Z,15.2777777778
2018-09-13T02:01:16.966Z,15.2777777778
2018-09-13T02:01:29.532Z,15.2777777778
2018-09-13T02:01:41.923Z,15.2777777778
2018-09-13T02:01:54.339Z,15.2777777778
2018-09-13T02:02:06.744Z,15.2777777778
2018-09-13T02:02:19.158Z,15.2777777778
2018-09-13T02:02:31.585Z,15.2777777778
2018-09-13T02:02:43.987Z,15.2777777778
2018-09-13T02:02:56.393Z,15.2777777778
2018-09-13T02:03:08.798Z,15.2777777778
2018-09-13T02:03:21.336Z,15.2777777778
2018-09-13T02:03:33.739Z,15.2777777778
2018-09-13T02:03:46.238Z,15.2777777778
2018-09-13T02:03:58.636Z,15.2777777778
2018-09-13T02:04:11.102Z,15.2777777778
2018-09-13T02:04:23.503Z,15.2777777778
2018-09-13T02:04:35.927Z,15.2777777778
2018-09-13T02:04:48.356Z,15.2777777778
2018-09-13T02:05:00.932Z,15.2777777778
2018-09-13T02:05:13.357Z,15.2777777778
2018-09-13T02:05:25.745Z,15.2777777778
2018-09-13T02:05:38.124Z,15.2777777778
2018-09-13T02:05:50.533Z,15.2777777778
2018-09-13T02:06:02.947Z,15.2777777778
2018-09-13T02:06:15.341Z,15.2777777778
2018-09-13T02:06:27.743Z,15.2777777778
2018-09-13T02:06:40.345Z,15.2777777778
2018-09-13T02:06:52.754Z,15.2777777778
2018-09-13T02:07:05.146Z,15.2777777778
2018-09-13T02:07:17.549Z,15.2777777778
2018-09-13T02:07:29.956Z,15.2777777778
2018-09-13T02:07:42.420Z,15.2777777778
2018-09-13T02:07:54.833Z,15.2777777778
2018-09-13T02:08:07.245Z,15.2777777778
2018-09-13T02:08:19.658Z,15.2777777778
2018-09-13T02:08:32.073Z,15.2777777778
2018-09-13T02:08:44.477Z,15.2777777778
2018-09-13T02:08:56.876Z,15.2777777778
2018-09-13T02:09:09.258Z,15.2777777778
2018-09-13T02:09:21.653Z,15.2777777778
2018-09-13T02:09:34.079Z,15.2777777778
2018-09-13T02:09:46.491Z,15.2777777778
2018-09-13T02:09:58.882Z,15.2777777778
2018-09-13T02:10:11.276Z,15.2777777778